Time;durP1;ratioP1;P1;durP2;ratioP2;P2;SDS_P1;SDS_P2;PMS_P1;PMS_P2;Temp;Humidity;BMP_temperature;BMP_pressure;BME280_temperature;BME280_humidity;BME280_pressure;Samples;Min_cycle;Max_cycle;Signal;HPM_P1;HPM_P2
2022/03/15 00:00:49;;;;;;;;;;;;;;;;;;4982960;28;1415;-80
2022/03/15 00:03:15;;;;;;;;;;;;;;;;;;4982137;28;1526;-80
2022/03/15 00:05:40;;;;;;;;;;;;;;;;;;4981563;28;1346;-78
2022/03/15 00:08:06;;;;;;;;;;;;;;;;;;4982531;28;1245;-77
2022/03/15 00:10:31;;;;;;;;;;;;;;;;;;4982291;28;1505;-77
2022/03/15 00:12:56;;;;;;;;;;;;;;;;;;4982302;28;1312;-77
2022/03/15 00:15:22;;;;;;;;;;;;;;;;;;4981934;28;1253;-78
2022/03/15 00:17:47;;;;;;;;;;;;;;;;;;4981986;28;1952;-77
2022/03/15 00:20:18;;;;;;;;;;;;;;;;;;4982399;28;1315;-79
2022/03/15 00:22:44;;;;;;;;;;;;;;;;;;4982624;28;1245;-79
2022/03/15 00:25:11;;;;;;;;;;;;;;;;;;4981086;28;1335;-78
2022/03/15 00:27:36;;;;;;;;;;;;;;;;;;4980929;28;1198;-78
2022/03/15 00:30:04;;;;;;;;;;;;;;;;;;4980069;28;1323;-78
2022/03/15 00:32:30;;;;;;;;;;;;;;;;;;4980935;28;1422;-78
2022/03/15 00:34:55;;;;;;;;;;;;;;;;;;4983002;28;1306;-78
2022/03/15 00:37:20;;;;;;;;;;;;;;;;;;4984934;28;1963;-77
2022/03/15 00:39:46;;;;;;;;;;;;;;;;;;4985353;28;1299;-78
2022/03/15 00:42:12;;;;;;;;;;;;;;;;;;4985194;28;1577;-79
2022/03/15 00:44:37;;;;;;;;;;;;;;;;;;4985355;28;1229;-77
2022/03/15 00:47:02;;;;;;;;;;;;;;;;;;4985628;28;1327;-78
2022/03/15 00:49:28;;;;;;;;;;;;;;;;;;4985329;28;1327;-78
2022/03/15 00:51:53;;;;;;;;;;;;;;;;;;4986004;28;1311;-78
2022/03/15 00:54:18;;;;;;;;;;;;;;;;;;4984602;28;1314;-78
2022/03/15 00:56:43;;;;;;;;;;;;;;;;;;4984723;28;1334;-77
2022/03/15 00:59:09;;;;;;;;;;;;;;;;;;4984558;28;1959;-78
2022/03/15 01:01:35;;;;;;;;;;;;;;;;;;4984988;28;1338;-78
2022/03/15 01:04:00;;;;;;;;;;;;;;;;;;4985100;28;1117;-79
2022/03/15 01:06:25;;;;;;;;;;;;;;;;;;4983993;28;1384;-79
2022/03/15 01:08:50;;;;;;;;;;;;;;;;;;4985361;28;1299;-79
2022/03/15 01:11:15;;;;;;;;;;;;;;;;;;4984456;28;1289;-79
2022/03/15 01:13:41;;;;;;;;;;;;;;;;;;4985566;28;1618;-79
2022/03/15 01:16:06;;;;;;;;;;;;;;;;;;4984846;28;1260;-79
2022/03/15 01:18:31;;;;;;;;;;;;;;;;;;4985794;28;2284;-79
2022/03/15 01:20:56;;;;;;;;;;;;;;;;;;4986300;28;1284;-79
2022/03/15 01:23:22;;;;;;;;;;;;;;;;;;4983955;28;1346;-79
2022/03/15 01:25:47;;;;;;;;;;;;;;;;;;4984104;28;1338;-79
2022/03/15 01:28:15;;;;;;;;;;;;;;;;;;4985211;28;1261;-79
2022/03/15 01:30:40;;;;;;;;;;;;;;;;;;4983364;28;1197;-79
2022/03/15 01:33:05;;;;;;;;;;;;;;;;;;4985305;28;1366;-79
2022/03/15 01:35:30;;;;;;;;;;;;;;;;;;4984387;28;1462;-79
2022/03/15 01:37:56;;;;;;;;;;;;;;;;;;4985512;28;1893;-79
2022/03/15 01:40:21;;;;;;;;;;;;;;;;;;4983590;28;1485;-79
2022/03/15 01:42:46;;;;;;;;;;;;;;;;;;4984955;28;1404;-78
2022/03/15 01:45:11;;;;;;;;;;;;;;;;;;4984132;28;1359;-78
2022/03/15 01:47:37;;;;;;;;;;;;;;;;;;4982852;28;1465;-78
2022/03/15 01:50:02;;;;;;;;;;;;;;;;;;4984765;28;1260;-79
2022/03/15 01:52:28;;;;;;;;;;;;;;;;;;4983984;28;1279;-79
2022/03/15 01:54:53;;;;;;;;;;;;;;;;;;4984175;28;1249;-79
2022/03/15 01:57:18;;;;;;;;;;;;;;;;;;4983950;28;1973;-79
2022/03/15 01:59:44;;;;;;;;;;;;;;;;;;4984764;28;1327;-79
2022/03/15 02:02:09;;;;;;;;;;;;;;;;;;4984895;28;1259;-79
2022/03/15 02:04:38;;;;;;;;;;;;;;;;;;4982740;28;1280;-78
2022/03/15 02:07:08;;;;;;;;;;;;;;;;;;4984360;28;1342;-79
2022/03/15 02:09:34;;;;;;;;;;;;;;;;;;4984494;28;1260;-78
2022/03/15 02:11:59;;;;;;;;;;;;;;;;;;4984143;28;1455;-78
2022/03/15 02:14:25;;;;;;;;;;;;;;;;;;4984036;28;1209;-78
2022/03/15 02:16:50;;;;;;;;;;;;;;;;;;4982451;28;1229;-78
2022/03/15 02:19:15;;;;;;;;;;;;;;;;;;4983842;28;1910;-78
2022/03/15 02:21:41;;;;;;;;;;;;;;;;;;4983720;28;1220;-77
2022/03/15 02:24:06;;;;;;;;;;;;;;;;;;4983886;28;1296;-77
2022/03/15 02:26:32;;;;;;;;;;;;;;;;;;4983999;28;1327;-78
2022/03/15 02:28:57;;;;;;;;;;;;;;;;;;4983608;28;1257;-77
2022/03/15 02:31:22;;;;;;;;;;;;;;;;;;4983735;28;1260;-77
2022/03/15 02:33:48;;;;;;;;;;;;;;;;;;4982727;28;1217;-78
2022/03/15 02:36:13;;;;;;;;;;;;;;;;;;4982486;28;1386;-78
2022/03/15 02:38:39;;;;;;;;;;;;;;;;;;4983515;28;1973;-78
2022/03/15 02:41:06;;;;;;;;;;;;;;;;;;4982607;28;1269;-78
2022/03/15 02:43:31;;;;;;;;;;;;;;;;;;4982672;28;1300;-77
2022/03/15 02:45:56;;;;;;;;;;;;;;;;;;4982741;28;1320;-77
2022/03/15 02:48:22;;;;;;;;;;;;;;;;;;4983938;28;1289;-76
2022/03/15 02:50:47;;;;;;;;;;;;;;;;;;4983696;28;1256;-77
2022/03/15 02:53:12;;;;;;;;;;;;;;;;;;4983239;28;1390;-77
2022/03/15 02:55:37;;;;;;;;;;;;;;;;;;4983107;28;1351;-77
2022/03/15 02:58:03;;;;;;;;;;;;;;;;;;4980298;28;1902;-78
2022/03/15 03:00:28;;;;;;;;;;;;;;;;;;4983541;28;1261;-79
2022/03/15 03:02:56;;;;;;;;;;;;;;;;;;4983236;28;1232;-78
2022/03/15 03:05:22;;;;;;;;;;;;;;;;;;4982586;28;1252;-78
2022/03/15 03:07:47;;;;;;;;;;;;;;;;;;4982936;28;1264;-78
2022/03/15 03:10:13;;;;;;;;;;;;;;;;;;4982901;28;1245;-78
2022/03/15 03:12:41;;;;;;;;;;;;;;;;;;4967550;28;1288;-78
2022/03/15 03:15:11;;;;;;;;;;;;;;;;;;4982838;28;1359;-78
2022/03/15 03:17:40;;;;;;;;;;;;;;;;;;4982661;28;1890;-77
2022/03/15 03:20:09;;;;;;;;;;;;;;;;;;4982192;28;1287;-77
2022/03/15 03:22:35;;;;;;;;;;;;;;;;;;4983049;28;1241;-77
2022/03/15 03:25:00;;;;;;;;;;;;;;;;;;4982443;28;1306;-77
2022/03/15 03:27:25;;;;;;;;;;;;;;;;;;4982447;28;1303;-77
2022/03/15 03:29:50;;;;;;;;;;;;;;;;;;4982469;28;1265;-77
2022/03/15 03:32:16;;;;;;;;;;;;;;;;;;4983012;28;1280;-78
2022/03/15 03:34:41;;;;;;;;;;;;;;;;;;4982300;28;1269;-77
2022/03/15 03:37:07;;;;;;;;;;;;;;;;;;4982229;28;1347;-78
2022/03/15 03:39:32;;;;;;;;;;;;;;;;;;4980933;28;1890;-77
2022/03/15 03:41:58;;;;;;;;;;;;;;;;;;4981948;28;1217;-77
2022/03/15 03:44:23;;;;;;;;;;;;;;;;;;4982802;28;1359;-77
2022/03/15 03:46:48;;;;;;;;;;;;;;;;;;4981988;28;1306;-77
2022/03/15 03:49:14;;;;;;;;;;;;;;;;;;4982793;28;1252;-77
2022/03/15 03:51:40;;;;;;;;;;;;;;;;;;4982241;28;1256;-77
2022/03/15 03:54:05;;;;;;;;;;;;;;;;;;4981884;28;1305;-76
2022/03/15 03:56:31;;;;;;;;;;;;;;;;;;4982441;28;1323;-76
2022/03/15 03:58:56;;;;;;;;;;;;;;;;;;4983061;28;1957;-76
2022/03/15 04:01:21;;;;;;;;;;;;;;;;;;4981819;28;1327;-77
2022/03/15 04:03:46;;;;;;;;;;;;;;;;;;4982646;28;1280;-77
2022/03/15 04:06:12;;;;;;;;;;;;;;;;;;4982037;28;1346;-76
2022/03/15 04:08:37;;;;;;;;;;;;;;;;;;4981168;28;1657;-77
2022/03/15 04:11:03;;;;;;;;;;;;;;;;;;4981762;28;1352;-77
2022/03/15 04:13:28;;;;;;;;;;;;;;;;;;4982434;28;1324;-78
2022/03/15 04:15:53;;;;;;;;;;;;;;;;;;4982018;28;1271;-77
2022/03/15 04:18:18;;;;;;;;;;;;;;;;;;4982655;28;1948;-78
2022/03/15 04:20:44;;;;;;;;;;;;;;;;;;4982430;28;1249;-78
2022/03/15 04:23:10;;;;;;;;;;;;;;;;;;4982214;28;1347;-79
2022/03/15 04:25:35;;;;;;;;;;;;;;;;;;4981898;28;1457;-78
2022/03/15 04:28:00;;;;;;;;;;;;;;;;;;4982028;28;1315;-78
2022/03/15 04:30:29;;;;;;;;;;;;;;;;;;4981913;28;1196;-78
2022/03/15 04:32:55;;;;;;;;;;;;;;;;;;4981781;28;1238;-77
2022/03/15 04:35:20;;;;;;;;;;;;;;;;;;4982474;28;1272;-77
2022/03/15 04:37:45;;;;;;;;;;;;;;;;;;4982617;28;1906;-77
2022/03/15 04:40:11;;;;;;;;;;;;;;;;;;4981402;28;1343;-78
2022/03/15 04:42:36;;;;;;;;;;;;;;;;;;4981951;28;1245;-77
2022/03/15 04:45:01;;;;;;;;;;;;;;;;;;4981683;28;1288;-78
2022/03/15 04:47:27;;;;;;;;;;;;;;;;;;4965038;28;1166;-78
2022/03/15 04:49:52;;;;;;;;;;;;;;;;;;4982151;28;1289;-79
2022/03/15 04:52:17;;;;;;;;;;;;;;;;;;4981981;28;1255;-80
2022/03/15 04:54:42;;;;;;;;;;;;;;;;;;4982018;28;1316;-80
2022/03/15 04:57:08;;;;;;;;;;;;;;;;;;4981417;28;1582;-80
2022/03/15 04:59:33;;;;;;;;;;;;;;;;;;4981298;28;1886;-80
2022/03/15 05:01:58;;;;;;;;;;;;;;;;;;4981740;28;1269;-79
2022/03/15 05:04:23;;;;;;;;;;;;;;;;;;4981484;28;1257;-80
2022/03/15 05:06:48;;;;;;;;;;;;;;;;;;4981663;28;1283;-80
2022/03/15 05:09:13;;;;;;;;;;;;;;;;;;4981689;28;1182;-80
2022/03/15 05:11:44;;;;;;;;;;;;;;;;;;4981564;28;1359;-80
2022/03/15 05:14:09;;;;;;;;;;;;;;;;;;4981586;28;1296;-81
2022/03/15 05:16:34;;;;;;;;;;;;;;;;;;4981731;28;1355;-81
2022/03/15 05:18:59;;;;;;;;;;;;;;;;;;4980716;28;1883;-81
2022/03/15 05:21:25;;;;;;;;;;;;;;;;;;4984933;28;1300;-81
2022/03/15 05:23:51;;;;;;;;;;;;;;;;;;4984296;28;1230;-81
2022/03/15 05:26:17;;;;;;;;;;;;;;;;;;4983133;28;1326;-81
2022/03/15 05:28:43;;;;;;;;;;;;;;;;;;4985587;28;1296;-81
2022/03/15 05:31:08;;;;;;;;;;;;;;;;;;4984879;28;1308;-81
2022/03/15 05:33:33;;;;;;;;;;;;;;;;;;4984633;28;1260;-82
2022/03/15 05:35:59;;;;;;;;;;;;;;;;;;4985127;28;1346;-81
2022/03/15 05:38:24;;;;;;;;;;;;;;;;;;4984688;28;1957;-82
2022/03/15 05:40:49;;;;;;;;;;;;;;;;;;4985219;28;1415;-82
2022/03/15 05:43:15;;;;;;;;;;;;;;;;;;4983749;28;1455;-81
2022/03/15 05:45:40;;;;;;;;;;;;;;;;;;4984464;28;1339;-82
2022/03/15 05:48:05;;;;;;;;;;;;;;;;;;4984261;28;1292;-80
2022/03/15 05:50:31;;;;;;;;;;;;;;;;;;4984312;28;1308;-80
2022/03/15 05:52:56;;;;;;;;;;;;;;;;;;4984296;28;1308;-79
2022/03/15 05:55:22;;;;;;;;;;;;;;;;;;4983620;28;1304;-80
2022/03/15 05:57:47;;;;;;;;;;;;;;;;;;4984300;28;1965;-80
2022/03/15 06:00:12;;;;;;;;;;;;;;;;;;4984602;28;1300;-79
2022/03/15 06:02:38;;;;;;;;;;;;;;;;;;4984243;28;1405;-79
2022/03/15 06:05:03;;;;;;;;;;;;;;;;;;4983703;28;1594;-79
2022/03/15 06:07:29;;;;;;;;;;;;;;;;;;4984258;28;1248;-79
2022/03/15 06:09:54;;;;;;;;;;;;;;;;;;4983023;28;1347;-77
2022/03/15 06:12:23;;;;;;;;;;;;;;;;;;4982131;28;1285;-79
2022/03/15 06:14:48;;;;;;;;;;;;;;;;;;4965547;28;1356;-76
2022/03/15 06:17:13;;;;;;;;;;;;;;;;;;4983043;28;1397;-78
2022/03/15 06:19:39;;;;;;;;;;;;;;;;;;4983680;28;1894;-79
2022/03/15 06:22:04;;;;;;;;;;;;;;;;;;4983543;28;1245;-77
2022/03/15 06:24:30;;;;;;;;;;;;;;;;;;4982878;28;1311;-78
2022/03/15 06:26:55;;;;;;;;;;;;;;;;;;4983030;28;1378;-80
2022/03/15 06:29:20;;;;;;;;;;;;;;;;;;4982996;28;1248;-79
2022/03/15 06:31:46;;;;;;;;;;;;;;;;;;4982291;28;1261;-79
2022/03/15 06:34:11;;;;;;;;;;;;;;;;;;4982985;28;1501;-80
2022/03/15 06:36:36;;;;;;;;;;;;;;;;;;4983611;28;1396;-79
2022/03/15 06:39:05;;;;;;;;;;;;;;;;;;4983408;28;1930;-80
2022/03/15 06:41:30;;;;;;;;;;;;;;;;;;4982611;28;1312;-81
2022/03/15 06:43:56;;;;;;;;;;;;;;;;;;4984246;28;1233;-81
2022/03/15 06:46:21;;;;;;;;;;;;;;;;;;4981508;28;1264;-82
2022/03/15 06:48:46;;;;;;;;;;;;;;;;;;4982668;28;1320;-81
2022/03/15 06:51:12;;;;;;;;;;;;;;;;;;4981971;28;1261;-79
2022/03/15 06:53:37;;;;;;;;;;;;;;;;;;4982974;28;1383;-82
2022/03/15 06:56:02;;;;;;;;;;;;;;;;;;4981623;28;1638;-82
2022/03/15 06:58:28;;;;;;;;;;;;;;;;;;4983198;28;1902;-81
2022/03/15 07:00:55;;;;;;;;;;;;;;;;;;4982755;28;1292;-82
2022/03/15 07:03:20;;;;;;;;;;;;;;;;;;4980924;28;1311;-81
2022/03/15 07:05:45;;;;;;;;;;;;;;;;;;4982333;28;1332;-82
2022/03/15 07:08:10;;;;;;;;;;;;;;;;;;4983252;28;1233;-77
2022/03/15 07:10:36;;;;;;;;;;;;;;;;;;4982726;28;1320;-78
2022/03/15 07:13:01;;;;;;;;;;;;;;;;;;4983486;28;1228;-80
2022/03/15 07:15:27;;;;;;;;;;;;;;;;;;4984263;28;1299;-78
2022/03/15 07:17:53;;;;;;;;;;;;;;;;;;4983640;28;1902;-79
2022/03/15 07:20:19;;;;;;;;;;;;;;;;;;4983830;28;1614;-78
2022/03/15 07:22:45;;;;;;;;;;;;;;;;;;4983714;28;1320;-83
2022/03/15 07:25:10;;;;;;;;;;;;;;;;;;4983144;28;1426;-85
2022/03/15 07:27:36;;;;;;;;;;;;;;;;;;4984829;28;1374;-84
2022/03/15 07:30:01;;;;;;;;;;;;;;;;;;4983663;28;1304;-86
2022/03/15 07:32:27;;;;;;;;;;;;;;;;;;4984517;28;1235;-85
2022/03/15 07:34:52;;;;;;;;;;;;;;;;;;4983876;28;1253;-81
2022/03/15 07:37:17;;;;;;;;;;;;;;;;;;4983986;28;1260;-82
2022/03/15 07:39:43;;;;;;;;;;;;;;;;;;4983015;28;1953;-79
2022/03/15 07:42:08;;;;;;;;;;;;;;;;;;4984818;28;1291;-78
2022/03/15 07:44:34;;;;;;;;;;;;;;;;;;4983630;28;1454;-78
2022/03/15 07:46:59;;;;;;;;;;;;;;;;;;4982019;28;1410;-81
2022/03/15 07:49:24;;;;;;;;;;;;;;;;;;4984679;28;1287;-78
2022/03/15 07:51:50;;;;;;;;;;;;;;;;;;4984450;28;1355;-80
2022/03/15 07:54:16;;;;;;;;;;;;;;;;;;4984377;28;1323;-79
2022/03/15 07:56:41;;;;;;;;;;;;;;;;;;4982896;28;1557;-81
2022/03/15 07:59:06;;;;;;;;;;;;;;;;;;4983828;28;1952;-77
2022/03/15 08:01:32;;;;;;;;;;;;;;;;;;4985216;28;1300;-86
2022/03/15 08:03:57;;;;;;;;;;;;;;;;;;4983293;28;1442;-79
2022/03/15 08:06:22;;;;;;;;;;;;;;;;;;4988409;28;1354;-85
2022/03/15 08:08:48;;;;;;;;;;;;;;;;;;4988567;28;1308;-80
2022/03/15 08:11:14;;;;;;;;;;;;;;;;;;4989527;28;1221;-82
2022/03/15 08:13:39;;;;;;;;;;;;;;;;;;4987417;28;1411;-82
2022/03/15 08:16:05;;;;;;;;;;;;;;;;;;4988487;28;1323;-87
2022/03/15 08:18:31;;;;;;;;;;;;;;;;;;4987224;28;1963;-80
2022/03/15 08:20:58;;;;;;;;;;;;;;;;;;4987385;28;1257;-84
2022/03/15 08:23:23;;;;;;;;;;;;;;;;;;4988655;28;1494;-82
2022/03/15 08:25:48;;;;;;;;;;;;;;;;;;4982808;28;1626;-76
2022/03/15 08:28:14;;;;;;;;;;;;;;;;;;4987900;28;1389;-82
2022/03/15 08:30:39;;;;;;;;;;;;;;;;;;4969711;28;1426;-82
2022/03/15 08:33:04;;;;;;;;;;;;;;;;;;4988564;28;1366;-81
2022/03/15 08:35:30;;;;;;;;;;;;;;;;;;4993983;28;1403;-78
2022/03/15 08:37:55;;;;;;;;;;;;;;;;;;4990486;28;1890;-80
2022/03/15 08:40:21;;;;;;;;;;;;;;;;;;4982459;28;1237;-80
2022/03/15 08:42:46;;;;;;;;;;;;;;;;;;4983996;28;1312;-80
2022/03/15 08:45:11;;;;;;;;;;;;;;;;;;4982951;28;1370;-80
2022/03/15 08:47:37;;;;;;;;;;;;;;;;;;4982411;28;1316;-78
2022/03/15 08:50:04;;;;;;;;;;;;;;;;;;4981959;28;1277;-78
2022/03/15 08:52:29;;;;;;;;;;;;;;;;;;4983034;28;1179;-86
2022/03/15 08:54:54;;;;;;;;;;;;;;;;;;4984462;28;1595;-80
2022/03/15 08:57:20;;;;;;;;;;;;;;;;;;4985242;28;1335;-74
2022/03/15 08:59:46;;;;;;;;;;;;;;;;;;4985467;28;1964;-78
2022/03/15 09:02:12;;;;;;;;;;;;;;;;;;4985204;28;1241;-77
2022/03/15 09:04:37;;;;;;;;;;;;;;;;;;4984809;28;1424;-79
2022/03/15 09:07:03;;;;;;;;;;;;;;;;;;4986316;28;1343;-85
2022/03/15 09:09:28;;;;;;;;;;;;;;;;;;4984457;28;1373;-79
2022/03/15 09:11:53;;;;;;;;;;;;;;;;;;4983922;28;1465;-77
2022/03/15 09:14:18;;;;;;;;;;;;;;;;;;4983096;28;1364;-78
2022/03/15 09:16:43;;;;;;;;;;;;;;;;;;4983476;28;1371;-78
2022/03/15 09:19:10;;;;;;;;;;;;;;;;;;4985167;28;1957;-78
2022/03/15 09:21:35;;;;;;;;;;;;;;;;;;4983616;28;1313;-79
2022/03/15 09:24:00;;;;;;;;;;;;;;;;;;4982589;28;1327;-78
2022/03/15 09:26:26;;;;;;;;;;;;;;;;;;4982661;28;1355;-77
2022/03/15 09:28:51;;;;;;;;;;;;;;;;;;4984151;28;1301;-78
2022/03/15 09:31:17;;;;;;;;;;;;;;;;;;4983602;28;1440;-78
2022/03/15 09:33:43;;;;;;;;;;;;;;;;;;4984538;28;1261;-77
2022/03/15 09:36:08;;;;;;;;;;;;;;;;;;4983543;28;1311;-76
2022/03/15 09:38:33;;;;;;;;;;;;;;;;;;4983949;28;1902;-78
2022/03/15 09:41:01;;;;;;;;;;;;;;;;;;4983638;28;1366;-78
2022/03/15 09:43:27;;;;;;;;;;;;;;;;;;4983821;28;1215;-77
2022/03/15 09:45:52;;;;;;;;;;;;;;;;;;4983036;28;1296;-77
2022/03/15 09:48:18;;;;;;;;;;;;;;;;;;4983097;28;1519;-77
2022/03/15 09:50:46;;;;;;;;;;;;;;;;;;4984073;28;1406;-76
2022/03/15 09:53:12;;;;;;;;;;;;;;;;;;4982329;28;1467;-76
2022/03/15 09:55:37;;;;;;;;;;;;;;;;;;4982667;28;1343;-78
2022/03/15 09:58:03;;;;;;;;;;;;;;;;;;4983472;28;1902;-77
2022/03/15 10:00:29;;;;;;;;;;;;;;;;;;4983688;28;1411;-79
2022/03/15 10:02:55;;;;;;;;;;;;;;;;;;4983708;28;1351;-79
2022/03/15 10:05:20;;;;;;;;;;;;;;;;;;4983181;28;1330;-78
2022/03/15 10:07:45;;;;;;;;;;;;;;;;;;4982784;28;1348;-78
2022/03/15 10:10:12;;;;;;;;;;;;;;;;;;4982891;28;1329;-78
2022/03/15 10:12:38;;;;;;;;;;;;;;;;;;4984139;28;1304;-78
2022/03/15 10:15:21;;;;;;;;;;;;;;;;;;4982135;28;1394;-79
2022/03/15 10:17:48;;;;;;;;;;;;;;;;;;4982806;28;1956;-78
2022/03/15 10:20:15;;;;;;;;;;;;;;;;;;4982356;28;1256;-79
2022/03/15 10:22:49;;;;;;;;;;;;;;;;;;4983743;28;1010;-79
2022/03/15 10:25:15;;;;;;;;;;;;;;;;;;4982249;28;1428;-78
2022/03/15 10:27:40;;;;;;;;;;;;;;;;;;4982904;28;1261;-78
2022/03/15 10:30:06;;;;;;;;;;;;;;;;;;4983612;28;1265;-79
2022/03/15 10:32:31;;;;;;;;;;;;;;;;;;4982162;28;1324;-79
2022/03/15 10:35:08;;;;;;;;;;;;;;;;;;4982645;28;1245;-78
2022/03/15 10:37:35;;;;;;;;;;;;;;;;;;4983277;28;1899;-79
2022/03/15 10:40:00;;;;;;;;;;;;;;;;;;4982560;28;1341;-77
2022/03/15 10:42:25;;;;;;;;;;;;;;;;;;4982874;28;1304;-77
2022/03/15 10:44:51;;;;;;;;;;;;;;;;;;4982256;28;1244;-78
2022/03/15 10:47:17;;;;;;;;;;;;;;;;;;4981844;28;1290;-78
2022/03/15 10:49:48;;;;;;;;;;;;;;;;;;4982716;28;1295;-78
2022/03/15 10:52:29;;;;;;;;;;;;;;;;;;4981477;28;1273;-76
2022/03/15 10:54:54;;;;;;;;;;;;;;;;;;4982584;28;1339;-77
2022/03/15 10:57:20;;;;;;;;;;;;;;;;;;4986224;28;1253;-86
2022/03/15 10:59:45;;;;;;;;;;;;;;;;;;4986852;28;1898;-85
2022/03/15 11:02:13;;;;;;;;;;;;;;;;;;4986064;28;1308;-84
2022/03/15 11:04:45;;;;;;;;;;;;;;;;;;4984572;28;1662;-81
2022/03/15 11:07:10;;;;;;;;;;;;;;;;;;4987209;28;1378;-83
2022/03/15 11:09:36;;;;;;;;;;;;;;;;;;4984927;28;1488;-84
2022/03/15 11:12:06;;;;;;;;;;;;;;;;;;4985608;28;1248;-86
2022/03/15 11:14:42;;;;;;;;;;;;;;;;;;4982508;28;1263;-88
2022/03/15 11:17:07;;;;;;;;;;;;;;;;;;4983473;28;1366;-82
2022/03/15 11:19:36;;;;;;;;;;;;;;;;;;4983303;28;1902;-80
2022/03/15 11:22:03;;;;;;;;;;;;;;;;;;4982457;28;1218;-84
2022/03/15 11:24:30;;;;;;;;;;;;;;;;;;4983543;28;1401;-81
2022/03/15 11:26:56;;;;;;;;;;;;;;;;;;4983358;28;1272;-85
2022/03/15 11:29:25;;;;;;;;;;;;;;;;;;4983584;28;1256;-84
2022/03/15 11:31:50;;;;;;;;;;;;;;;;;;4983917;28;1164;-82
2022/03/15 11:34:17;;;;;;;;;;;;;;;;;;4983555;28;1259;-84
2022/03/15 11:36:42;;;;;;;;;;;;;;;;;;4982959;28;1386;-80
2022/03/15 11:39:08;;;;;;;;;;;;;;;;;;4983899;28;1961;-84
2022/03/15 11:41:34;;;;;;;;;;;;;;;;;;4983155;28;1264;-86
2022/03/15 11:44:09;;;;;;;;;;;;;;;;;;4982847;28;1225;-85
2022/03/15 11:46:36;;;;;;;;;;;;;;;;;;4982540;28;1360;-85
2022/03/15 11:49:19;;;;;;;;;;;;;;;;;;4983778;28;1288;-83
2022/03/15 11:51:54;;;;;;;;;;;;;;;;;;4984241;28;1284;-85
2022/03/15 11:54:26;;;;;;;;;;;;;;;;;;4985356;28;1348;-83
2022/03/15 11:56:59;;;;;;;;;;;;;;;;;;4982660;28;1374;-81
2022/03/15 11:59:24;;;;;;;;;;;;;;;;;;4982228;28;1936;-82
2022/03/15 12:01:51;;;;;;;;;;;;;;;;;;4984951;28;1431;-82
2022/03/15 12:04:17;;;;;;;;;;;;;;;;;;4985276;28;1418;-76
2022/03/15 12:06:54;;;;;;;;;;;;;;;;;;4984554;28;1264;-82
2022/03/15 12:09:20;;;;;;;;;;;;;;;;;;4986034;28;1313;-84
2022/03/15 12:11:46;;;;;;;;;;;;;;;;;;4983462;28;1344;-81
2022/03/15 12:14:13;;;;;;;;;;;;;;;;;;4985668;28;1272;-80
2022/03/15 12:16:41;;;;;;;;;;;;;;;;;;4983910;28;1278;-77
2022/03/15 12:19:27;;;;;;;;;;;;;;;;;;4985551;28;1964;-83
2022/03/15 12:21:57;;;;;;;;;;;;;;;;;;4987432;28;1627;-78
2022/03/15 12:24:29;;;;;;;;;;;;;;;;;;4987640;28;1233;-78
2022/03/15 12:26:58;;;;;;;;;;;;;;;;;;4984552;28;1667;-80
2022/03/15 12:29:26;;;;;;;;;;;;;;;;;;4984271;28;1261;-78
2022/03/15 12:31:52;;;;;;;;;;;;;;;;;;4988062;28;1551;-76
2022/03/15 12:34:18;;;;;;;;;;;;;;;;;;4986122;28;1316;-80
2022/03/15 12:36:49;;;;;;;;;;;;;;;;;;4986466;28;1410;-80
2022/03/15 12:39:18;;;;;;;;;;;;;;;;;;4984908;28;1961;-80
2022/03/15 12:41:45;;;;;;;;;;;;;;;;;;4986099;28;1209;-77
2022/03/15 12:44:10;;;;;;;;;;;;;;;;;;4987240;28;1213;-79
2022/03/15 12:46:40;;;;;;;;;;;;;;;;;;4984149;28;1351;-78
2022/03/15 12:49:07;;;;;;;;;;;;;;;;;;4985886;28;1494;-79
2022/03/15 12:51:37;;;;;;;;;;;;;;;;;;4985665;28;1237;-81
2022/03/15 12:54:06;;;;;;;;;;;;;;;;;;4984532;28;1366;-78
2022/03/15 12:56:32;;;;;;;;;;;;;;;;;;4984565;28;1370;-79
2022/03/15 12:58:57;;;;;;;;;;;;;;;;;;4987016;28;1983;-79
2022/03/15 13:01:22;;;;;;;;;;;;;;;;;;4988168;28;1642;-79
2022/03/15 13:03:48;;;;;;;;;;;;;;;;;;4989344;28;1791;-81
2022/03/15 13:06:20;;;;;;;;;;;;;;;;;;4989525;28;1360;-79
2022/03/15 13:08:52;;;;;;;;;;;;;;;;;;4991413;28;1233;-82
2022/03/15 13:11:18;;;;;;;;;;;;;;;;;;4989533;28;1397;-80
2022/03/15 13:13:45;;;;;;;;;;;;;;;;;;4990319;28;1244;-79
2022/03/15 13:16:10;;;;;;;;;;;;;;;;;;4989271;28;1395;-82
2022/03/15 13:18:36;;;;;;;;;;;;;;;;;;4992173;28;1898;-78
2022/03/15 13:21:06;;;;;;;;;;;;;;;;;;4993667;28;1248;-82
2022/03/15 13:23:32;;;;;;;;;;;;;;;;;;4990866;28;1579;-85
2022/03/15 13:26:05;;;;;;;;;;;;;;;;;;4988323;28;1259;-83
2022/03/15 13:28:32;;;;;;;;;;;;;;;;;;4988636;28;1114;-80
2022/03/15 13:30:59;;;;;;;;;;;;;;;;;;4987069;28;1304;-86
2022/03/15 13:33:44;;;;;;;;;;;;;;;;;;4988187;28;1253;-84
2022/03/15 13:36:11;;;;;;;;;;;;;;;;;;4988434;28;1339;-81
2022/03/15 13:38:48;;;;;;;;;;;;;;;;;;4990391;28;1867;-75
2022/03/15 13:41:15;;;;;;;;;;;;;;;;;;4988718;28;1680;-82
2022/03/15 13:43:43;;;;;;;;;;;;;;;;;;4987555;28;1268;-80
2022/03/15 13:46:09;;;;;;;;;;;;;;;;;;4987294;28;1413;-77
2022/03/15 13:48:38;;;;;;;;;;;;;;;;;;4978695;28;1308;-78
2022/03/15 13:51:07;;;;;;;;;;;;;;;;;;4986812;28;1237;-76
2022/03/15 13:53:32;;;;;;;;;;;;;;;;;;4986504;28;1355;-81
2022/03/15 13:56:14;;;;;;;;;;;;;;;;;;4987353;28;1276;-78
2022/03/15 13:58:44;;;;;;;;;;;;;;;;;;4987605;28;1894;-78
2022/03/15 14:01:10;;;;;;;;;;;;;;;;;;4986941;28;1355;-77
2022/03/15 14:03:36;;;;;;;;;;;;;;;;;;4986400;28;1245;-79
2022/03/15 14:06:08;;;;;;;;;;;;;;;;;;4986269;28;1307;-78
2022/03/15 14:08:43;;;;;;;;;;;;;;;;;;4984666;28;1289;-76
2022/03/15 14:11:12;;;;;;;;;;;;;;;;;;4985543;28;1408;-74
2022/03/15 14:13:37;;;;;;;;;;;;;;;;;;4985871;28;1448;-76
2022/03/15 14:16:16;;;;;;;;;;;;;;;;;;4983383;28;1646;-75
2022/03/15 14:18:52;;;;;;;;;;;;;;;;;;4984572;28;1955;-77
2022/03/15 14:21:20;;;;;;;;;;;;;;;;;;4987767;28;1551;-76
2022/03/15 14:23:53;;;;;;;;;;;;;;;;;;4984887;28;1338;-76
2022/03/15 14:26:28;;;;;;;;;;;;;;;;;;4982895;28;1406;-75
2022/03/15 14:28:57;;;;;;;;;;;;;;;;;;4982231;28;1266;-75
2022/03/15 14:31:30;;;;;;;;;;;;;;;;;;4981321;28;1340;-74
2022/03/15 14:34:01;;;;;;;;;;;;;;;;;;4983110;28;1351;-75
2022/03/15 14:36:33;;;;;;;;;;;;;;;;;;4981679;28;1429;-75
2022/03/15 14:39:09;;;;;;;;;;;;;;;;;;4983924;28;1978;-74
2022/03/15 14:41:35;;;;;;;;;;;;;;;;;;4983083;28;1355;-76
2022/03/15 14:44:00;;;;;;;;;;;;;;;;;;4984044;28;1461;-76
2022/03/15 14:46:25;;;;;;;;;;;;;;;;;;4983177;28;1366;-77
2022/03/15 14:48:51;;;;;;;;;;;;;;;;;;4983965;28;1317;-75
2022/03/15 14:51:16;;;;;;;;;;;;;;;;;;4983412;28;1409;-76
2022/03/15 14:53:41;;;;;;;;;;;;;;;;;;4981251;28;1332;-77
2022/03/15 14:56:07;;;;;;;;;;;;;;;;;;4981891;28;1407;-77
2022/03/15 14:58:32;;;;;;;;;;;;;;;;;;4983022;28;1965;-76
2022/03/15 15:00:58;;;;;;;;;;;;;;;;;;4983474;28;1161;-77
2022/03/15 15:03:23;;;;;;;;;;;;;;;;;;4982658;28;1320;-76
2022/03/15 15:05:57;;;;;;;;;;;;;;;;;;4980438;28;1504;-77
2022/03/15 15:08:22;;;;;;;;;;;;;;;;;;4983429;28;1222;-76
2022/03/15 15:10:47;;;;;;;;;;;;;;;;;;4981964;28;1174;-77
2022/03/15 15:13:13;;;;;;;;;;;;;;;;;;4982334;28;1260;-76
2022/03/15 15:15:40;;;;;;;;;;;;;;;;;;4982003;28;1422;-76
2022/03/15 15:18:05;;;;;;;;;;;;;;;;;;4982021;28;1902;-76
2022/03/15 15:20:31;;;;;;;;;;;;;;;;;;4981708;28;1603;-76
2022/03/15 15:23:00;;;;;;;;;;;;;;;;;;4965725;28;1584;-76
2022/03/15 15:25:25;;;;;;;;;;;;;;;;;;4980264;28;1307;-76
2022/03/15 15:27:51;;;;;;;;;;;;;;;;;;4982893;28;1209;-77
2022/03/15 15:30:18;;;;;;;;;;;;;;;;;;4981091;28;1273;-77
2022/03/15 15:32:46;;;;;;;;;;;;;;;;;;4981274;28;1243;-75
2022/03/15 15:35:11;;;;;;;;;;;;;;;;;;4982377;28;1285;-76
2022/03/15 15:37:37;;;;;;;;;;;;;;;;;;4981404;28;1306;-75
2022/03/15 15:40:03;;;;;;;;;;;;;;;;;;4981555;28;1894;-77
2022/03/15 15:42:30;;;;;;;;;;;;;;;;;;4981970;28;1389;-74
2022/03/15 15:44:57;;;;;;;;;;;;;;;;;;4980569;28;1302;-76
2022/03/15 15:47:24;;;;;;;;;;;;;;;;;;4981011;28;1379;-76
2022/03/15 15:49:53;;;;;;;;;;;;;;;;;;4982398;28;1328;-74
2022/03/15 15:52:19;;;;;;;;;;;;;;;;;;4981191;28;1340;-74
2022/03/15 15:54:51;;;;;;;;;;;;;;;;;;4981664;28;1408;-73
2022/03/15 15:57:17;;;;;;;;;;;;;;;;;;4980289;28;1351;-73
2022/03/15 15:59:43;;;;;;;;;;;;;;;;;;4981098;28;1922;-73
2022/03/15 16:02:08;;;;;;;;;;;;;;;;;;4979226;28;1381;-74
2022/03/15 16:04:33;;;;;;;;;;;;;;;;;;4980627;28;1288;-73
2022/03/15 16:06:59;;;;;;;;;;;;;;;;;;4980444;28;1431;-73
2022/03/15 16:09:25;;;;;;;;;;;;;;;;;;4980569;28;1348;-73
2022/03/15 16:11:50;;;;;;;;;;;;;;;;;;4981567;28;1277;-74
2022/03/15 16:14:15;;;;;;;;;;;;;;;;;;4981073;28;1304;-74
2022/03/15 16:16:41;;;;;;;;;;;;;;;;;;4980906;28;1346;-73
2022/03/15 16:19:06;;;;;;;;;;;;;;;;;;4981109;28;1915;-77
2022/03/15 16:21:34;;;;;;;;;;;;;;;;;;4981563;28;1440;-76
2022/03/15 16:23:59;;;;;;;;;;;;;;;;;;4981183;28;1424;-75
2022/03/15 16:26:27;;;;;;;;;;;;;;;;;;4981515;28;1492;-76
2022/03/15 16:28:52;;;;;;;;;;;;;;;;;;4981907;28;1289;-77
2022/03/15 16:31:18;;;;;;;;;;;;;;;;;;4980762;28;1317;-77
2022/03/15 16:33:43;;;;;;;;;;;;;;;;;;4981684;28;1233;-75
2022/03/15 16:36:08;;;;;;;;;;;;;;;;;;4979396;28;1426;-76
2022/03/15 16:38:34;;;;;;;;;;;;;;;;;;4981610;28;1985;-76
2022/03/15 16:40:59;;;;;;;;;;;;;;;;;;4981533;28;1344;-75
2022/03/15 16:43:24;;;;;;;;;;;;;;;;;;4981957;28;1278;-75
2022/03/15 16:45:50;;;;;;;;;;;;;;;;;;4982147;28;1444;-75
2022/03/15 16:48:15;;;;;;;;;;;;;;;;;;4982183;28;1304;-76
2022/03/15 16:50:41;;;;;;;;;;;;;;;;;;4981262;28;1439;-75
2022/03/15 16:53:09;;;;;;;;;;;;;;;;;;4981043;28;1479;-76
2022/03/15 16:55:35;;;;;;;;;;;;;;;;;;4978625;28;1359;-67
2022/03/15 16:58:00;;;;;;;;;;;;;;;;;;4980251;28;1910;-64